Guenther Schulte — VRGK8 — position and weather

sailwx.info

Track history (hours):
 
Tides and Currents Weather Stations Pressure Air Temp Water Temp Dewpoint Dewpoint Depression Visibility Wind Speed Wind Dir Waves Ship Positions

Guenther Schulte

Last reported at 2016-Feb-02 03:11 UTC. Time now 2016-Feb-11 06:32 UTC.
Position N 32°15' W 117°54'.
Warning: this ship's position is 9 days out of date.

Length 231 m; draft 11.2 m.

Type: Ship (hazmat cat C). MMSI: 477728800.

Date/timePositionNaut miles runAvg speedWind from/ knotsBaromVisibWave heightAir tempDewpointWater temp
2016-Feb-02 03:11N 32°15' W 117°54'1015.0
2016-Feb-02 02:30N 32°25' W 117°50'1212.4
2016-Feb-02 01:33N 32°36' W 117°47'1212.4
2016-Feb-02 00:34N 32°49' W 117°48'1312.5
2016-Feb-01 23:34N 32°59' W 117°55'1312.8
2016-Feb-01 22:31N 33°11' W 118°03'1312.8
2016-Feb-01 21:32N 33°23' W 118°08'2010.2
2016-Feb-01 19:34N 33°43' W 118°11'4 4.1
2016-Feb-01 18:34N 33°46' W 118°14'0 0.0
2016-Feb-01 17:27N 33°46' W 118°14'0 0.0
2016-Feb-01 16:21N 33°46' W 118°14'0 0.0
2016-Feb-01 15:33N 33°46' W 118°14'0 0.0
2016-Feb-01 14:33N 33°46' W 118°14'0 0.0
2016-Feb-01 13:33N 33°46' W 118°14'0 0.0
2016-Feb-01 12:30N 33°46' W 118°14'0 0.0
2016-Feb-01 11:33N 33°46' W 118°14'0 0.0
2016-Feb-01 10:33N 33°46' W 118°14'0 0.0
2016-Feb-01 09:33N 33°46' W 118°14'0 0.0
2016-Feb-01 08:30N 33°46' W 118°14'0 0.0
2016-Feb-01 07:33N 33°46' W 118°14'0 0.0
2016-Feb-01 06:33N 33°46' W 118°14'0 0.0
2016-Feb-01 05:33N 33°46' W 118°14'0 0.0
2016-Feb-01 04:33N 33°46' W 118°14'0 0.0
2016-Feb-01 03:33N 33°46' W 118°14'0 0.0
2016-Feb-01 02:30N 33°46' W 118°14'0 0.0
2016-Feb-01 01:33N 33°46' W 118°14'0 0.0
2016-Feb-01 00:33N 33°46' W 118°14'0 0.0
2016-Jan-31 23:33N 33°46' W 118°14'0 0.0
2016-Jan-31 22:33N 33°46' W 118°14'0 0.0
2016-Jan-31 21:33N 33°46' W 118°14'0 0.0
2016-Jan-31 20:33N 33°46' W 118°14'0 0.0
2016-Jan-31 19:33N 33°46' W 118°14'0 0.0
2016-Jan-31 18:33N 33°46' W 118°14'0 0.0
2016-Jan-31 17:33N 33°46' W 118°14'0 0.0
2016-Jan-31 16:33N 33°46' W 118°14'0 0.0
2016-Jan-31 15:33N 33°46' W 118°14'0 0.0
2016-Jan-31 14:33N 33°46' W 118°14'0 0.0
2016-Jan-31 13:33N 33°46' W 118°14'0 0.0
2016-Jan-31 12:33N 33°46' W 118°14'0 0.0
2016-Jan-31 11:33N 33°46' W 118°14'0 0.0
2016-Jan-31 10:33N 33°46' W 118°14'0 0.0
2016-Jan-31 09:33N 33°46' W 118°14'0 0.0
2016-Jan-31 08:33N 33°46' W 118°14'0 0.0
2016-Jan-31 07:33N 33°46' W 118°14'0 0.0
2016-Jan-31 06:33N 33°46' W 118°14'0 0.0
2016-Jan-31 05:33N 33°46' W 118°14'0 0.0
2016-Jan-31 04:33N 33°46' W 118°14'0 0.0
2016-Jan-31 03:30N 33°46' W 118°14'0 0.1
2016-Jan-31 02:33N 33°46' W 118°14'0 0.0
2016-Jan-31 01:30N 33°46' W 118°14'0 0.1
2016-Jan-31 00:33N 33°46' W 118°14'0 0.0
2016-Jan-30 23:33N 33°46' W 118°14'0 0.0
2016-Jan-30 22:33N 33°46' W 118°14'0 0.0
2016-Jan-30 21:33N 33°46' W 118°14'0 0.0
2016-Jan-30 20:33N 33°46' W 118°14'0 0.0
2016-Jan-30 19:33N 33°46' W 118°14'0 0.0
2016-Jan-30 18:30N 33°46' W 118°14'0 0.0
2016-Jan-30 17:33N 33°46' W 118°14'0 0.0
2016-Jan-30 16:33N 33°46' W 118°14'0 0.0
2016-Jan-30 15:33N 33°46' W 118°14'0 0.0
2016-Jan-30 14:33N 33°46' W 118°14'0 0.0
2016-Jan-30 13:33N 33°46' W 118°14'2 2.1
2016-Jan-30 12:33N 33°44' W 118°13'7 5.5
2016-Jan-30 11:19N 33°38' W 118°13'7 9.6
2016-Jan-30 10:33N 33°36' W 118°21'16 7.7
2016-Jan-30 08:32N 33°44' W 118°37'10210.2
2016-Jan-29 22:33N 34°20' W 120°32'1110.7
2016-Jan-29 21:32N 34°23' W 120°45'1010.1
2016-Jan-29 20:33N 34°25' W 120°57'33 9.5
2016-Jan-29 17:05N 34°54' W 121°18'4 8.4
2016-Jan-29 16:33N 34°58' W 121°19'16712.8
2016-Jan-29 03:31N 37°30' W 122°44'1111.9
2016-Jan-29 02:33N 37°41' W 122°41'10 9.6
2016-Jan-29 01:33N 37°48' W 122°32'1010.4
2016-Jan-29 00:33N 37°49' W 122°19'0 0.5
2016-Jan-28 23:33N 37°49' W 122°19'0 0.0
2016-Jan-28 22:33N 37°49' W 122°19'0 0.0
2016-Jan-28 21:33N 37°49' W 122°19'0 0.0
2016-Jan-28 20:33N 37°49' W 122°19'0 0.0
2016-Jan-28 19:33N 37°49' W 122°19'0 0.0
2016-Jan-28 18:33N 37°49' W 122°19'0 0.0
2016-Jan-28 17:33N 37°49' W 122°19'0 0.0
2016-Jan-28 16:33N 37°49' W 122°19'0 0.0
2016-Jan-28 15:33N 37°49' W 122°19'0 0.0
2016-Jan-28 14:33N 37°49' W 122°19'0 0.0
2016-Jan-28 13:34N 37°49' W 122°19'0 0.0
2016-Jan-28 12:33N 37°49' W 122°19'0 0.0
2016-Jan-28 11:34N 37°49' W 122°19'0 0.0
2016-Jan-28 10:33N 37°49' W 122°19'0 0.0
2016-Jan-28 09:33N 37°49' W 122°19'0 0.0
2016-Jan-28 08:33N 37°49' W 122°19'0 0.0
2016-Jan-28 07:33N 37°49' W 122°19'0 0.0
2016-Jan-28 06:33N 37°49' W 122°19'0 0.0
2016-Jan-28 05:33N 37°49' W 122°19'0 0.0
2016-Jan-28 04:33N 37°49' W 122°19'0 0.0
2016-Jan-28 03:33N 37°49' W 122°19'0 0.0
2016-Jan-28 02:33N 37°49' W 122°19'0 0.3
2016-Jan-28 01:34N 37°49' W 122°19'9 8.9
2016-Jan-28 00:33N 37°48' W 122°30'1111.0
2016-Jan-27 23:33N 37°43' W 122°43'9 9.1
2016-Jan-27 22:33N 37°38' W 122°52'10 9.7
2016-Jan-27 21:33N 37°32' W 123°02'10 9.9
2016-Jan-27 20:33N 37°27' W 123°12'1110.0
2016-Jan-27 19:25N 37°20' W 123°24'10 9.4
2016-Jan-27 18:20N 37°13' W 123°33'2110.2
2016-Jan-27 16:18N 36°59' W 123°52'  
Track history (hours):
 
Tides and Currents Weather Stations Pressure Air Temp Water Temp Dewpoint Dewpoint Depression Visibility Wind Speed Wind Dir Waves Ship Positions

Guenther Schulte

Last reported at 2016-Feb-02 03:11 UTC. Time now 2016-Feb-11 06:32 UTC.
Position N 32°15' W 117°54'.
Warning: this ship's position is 9 days out of date.

Length 231 m; draft 11.2 m.

Type: Ship (hazmat cat C). MMSI: 477728800.

Date/timePositionNaut miles runAvg speedWind from/ knotsBaromVisibWave heightAir tempDewpointWater temp
2016-Feb-02 03:11N 32°15' W 117°54'1015.0
2016-Feb-02 02:30N 32°25' W 117°50'1212.4
2016-Feb-02 01:33N 32°36' W 117°47'1212.4
2016-Feb-02 00:34N 32°49' W 117°48'1312.5
2016-Feb-01 23:34N 32°59' W 117°55'1312.8
2016-Feb-01 22:31N 33°11' W 118°03'1312.8
2016-Feb-01 21:32N 33°23' W 118°08'2010.2
2016-Feb-01 19:34N 33°43' W 118°11'4 4.1
2016-Feb-01 18:34N 33°46' W 118°14'0 0.0
2016-Feb-01 17:27N 33°46' W 118°14'0 0.0
2016-Feb-01 16:21N 33°46' W 118°14'0 0.0
2016-Feb-01 15:33N 33°46' W 118°14'0 0.0
2016-Feb-01 14:33N 33°46' W 118°14'0 0.0
2016-Feb-01 13:33N 33°46' W 118°14'0 0.0
2016-Feb-01 12:30N 33°46' W 118°14'0 0.0
2016-Feb-01 11:33N 33°46' W 118°14'0 0.0
2016-Feb-01 10:33N 33°46' W 118°14'0 0.0
2016-Feb-01 09:33N 33°46' W 118°14'0 0.0
2016-Feb-01 08:30N 33°46' W 118°14'0 0.0
2016-Feb-01 07:33N 33°46' W 118°14'0 0.0
2016-Feb-01 06:33N 33°46' W 118°14'0 0.0
2016-Feb-01 05:33N 33°46' W 118°14'0 0.0
2016-Feb-01 04:33N 33°46' W 118°14'0 0.0
2016-Feb-01 03:33N 33°46' W 118°14'0 0.0
2016-Feb-01 02:30N 33°46' W 118°14'0 0.0
2016-Feb-01 01:33N 33°46' W 118°14'0 0.0
2016-Feb-01 00:33N 33°46' W 118°14'0 0.0
2016-Jan-31 23:33N 33°46' W 118°14'0 0.0
2016-Jan-31 22:33N 33°46' W 118°14'0 0.0
2016-Jan-31 21:33N 33°46' W 118°14'0 0.0
2016-Jan-31 20:33N 33°46' W 118°14'0 0.0
2016-Jan-31 19:33N 33°46' W 118°14'0 0.0
2016-Jan-31 18:33N 33°46' W 118°14'0 0.0
2016-Jan-31 17:33N 33°46' W 118°14'0 0.0
2016-Jan-31 16:33N 33°46' W 118°14'0 0.0
2016-Jan-31 15:33N 33°46' W 118°14'0 0.0
2016-Jan-31 14:33N 33°46' W 118°14'0 0.0
2016-Jan-31 13:33N 33°46' W 118°14'0 0.0
2016-Jan-31 12:33N 33°46' W 118°14'0 0.0
2016-Jan-31 11:33N 33°46' W 118°14'0 0.0
2016-Jan-31 10:33N 33°46' W 118°14'0 0.0
2016-Jan-31 09:33N 33°46' W 118°14'0 0.0
2016-Jan-31 08:33N 33°46' W 118°14'0 0.0
2016-Jan-31 07:33N 33°46' W 118°14'0 0.0
2016-Jan-31 06:33N 33°46' W 118°14'0 0.0
2016-Jan-31 05:33N 33°46' W 118°14'0 0.0
2016-Jan-31 04:33N 33°46' W 118°14'0 0.0
2016-Jan-31 03:30N 33°46' W 118°14'0 0.1
2016-Jan-31 02:33N 33°46' W 118°14'0 0.0
2016-Jan-31 01:30N 33°46' W 118°14'0 0.1
2016-Jan-31 00:33N 33°46' W 118°14'0 0.0
2016-Jan-30 23:33N 33°46' W 118°14'0 0.0
2016-Jan-30 22:33N 33°46' W 118°14'0 0.0
2016-Jan-30 21:33N 33°46' W 118°14'0 0.0
2016-Jan-30 20:33N 33°46' W 118°14'0 0.0
2016-Jan-30 19:33N 33°46' W 118°14'0 0.0
2016-Jan-30 18:30N 33°46' W 118°14'0 0.0
2016-Jan-30 17:33N 33°46' W 118°14'0 0.0
2016-Jan-30 16:33N 33°46' W 118°14'0 0.0
2016-Jan-30 15:33N 33°46' W 118°14'0 0.0
2016-Jan-30 14:33N 33°46' W 118°14'0 0.0
2016-Jan-30 13:33N 33°46' W 118°14'2 2.1
2016-Jan-30 12:33N 33°44' W 118°13'7 5.5
2016-Jan-30 11:19N 33°38' W 118°13'7 9.6
2016-Jan-30 10:33N 33°36' W 118°21'16 7.7
2016-Jan-30 08:32N 33°44' W 118°37'10210.2
2016-Jan-29 22:33N 34°20' W 120°32'1110.7
2016-Jan-29 21:32N 34°23' W 120°45'1010.1
2016-Jan-29 20:33N 34°25' W 120°57'33 9.5
2016-Jan-29 17:05N 34°54' W 121°18'4 8.4
2016-Jan-29 16:33N 34°58' W 121°19'16712.8
2016-Jan-29 03:31N 37°30' W 122°44'1111.9
2016-Jan-29 02:33N 37°41' W 122°41'10 9.6
2016-Jan-29 01:33N 37°48' W 122°32'1010.4
2016-Jan-29 00:33N 37°49' W 122°19'0 0.5
2016-Jan-28 23:33N 37°49' W 122°19'0 0.0
2016-Jan-28 22:33N 37°49' W 122°19'0 0.0
2016-Jan-28 21:33N 37°49' W 122°19'0 0.0
2016-Jan-28 20:33N 37°49' W 122°19'0 0.0
2016-Jan-28 19:33N 37°49' W 122°19'0 0.0
2016-Jan-28 18:33N 37°49' W 122°19'0 0.0
2016-Jan-28 17:33N 37°49' W 122°19'0 0.0
2016-Jan-28 16:33N 37°49' W 122°19'0 0.0
2016-Jan-28 15:33N 37°49' W 122°19'0 0.0
2016-Jan-28 14:33N 37°49' W 122°19'0 0.0
2016-Jan-28 13:34N 37°49' W 122°19'0 0.0
2016-Jan-28 12:33N 37°49' W 122°19'0 0.0
2016-Jan-28 11:34N 37°49' W 122°19'0 0.0
2016-Jan-28 10:33N 37°49' W 122°19'0 0.0
2016-Jan-28 09:33N 37°49' W 122°19'0 0.0
2016-Jan-28 08:33N 37°49' W 122°19'0 0.0
2016-Jan-28 07:33N 37°49' W 122°19'0 0.0
2016-Jan-28 06:33N 37°49' W 122°19'0 0.0
2016-Jan-28 05:33N 37°49' W 122°19'0 0.0
2016-Jan-28 04:33N 37°49' W 122°19'0 0.0
2016-Jan-28 03:33N 37°49' W 122°19'0 0.0
2016-Jan-28 02:33N 37°49' W 122°19'0 0.3
2016-Jan-28 01:34N 37°49' W 122°19'9 8.9
2016-Jan-28 00:33N 37°48' W 122°30'1111.0
2016-Jan-27 23:33N 37°43' W 122°43'9 9.1
2016-Jan-27 22:33N 37°38' W 122°52'10 9.7
2016-Jan-27 21:33N 37°32' W 123°02'10 9.9
2016-Jan-27 20:33N 37°27' W 123°12'1110.0
2016-Jan-27 19:25N 37°20' W 123°24'10 9.4
2016-Jan-27 18:20N 37°13' W 123°33'2110.2
2016-Jan-27 16:18N 36°59' W 123°52'  

Dump ship's entire track history